Terminal Aerodrome Forecast
Issued by NWS Charleston, SC

Home | Current Version | Previous Version | Text Only | Print | Product List | Glossary On
Versions: 1 2 3 4 5 6 7 8 9 10 11 12 13 14 15 16 17 18 19 20 21 22 23 24 25 26 27 28 29 30 31
830
FTUS42 KCHS 200723 AAA
TAFCHS
TAF AMD
KCHS 200723Z 2007/2106 07003KT 1/4SM FG BKN002
     FM201400 14005KT 5SM BR SCT007 OVC015
     FM201500 16009KT P6SM BKN035
     FM210300 14004KT 5SM BR SCT004 BKN010=

USA.gov is the U.S. government's official web portal to all federal, state and local government web resources and services.